sensor_id;sensor_type;location;lat;lon;timestamp;P1;durP1;ratioP1;P2;durP2;ratioP2
55647;SDS011;45266;48.756;9.246;2022-08-19T00:00:29;12.50;;;11.23;;
55647;SDS011;45266;48.756;9.246;2022-08-19T00:01:31;15.23;;;11.55;;
55647;SDS011;45266;48.756;9.246;2022-08-19T00:02:38;12.40;;;11.20;;
55647;SDS011;45266;48.756;9.246;2022-08-19T00:03:50;13.43;;;12.02;;
55647;SDS011;45266;48.756;9.246;2022-08-19T00:04:52;12.68;;;11.48;;
55647;SDS011;45266;48.756;9.246;2022-08-19T00:05:54;13.23;;;11.82;;
55647;SDS011;45266;48.756;9.246;2022-08-19T00:06:56;12.45;;;11.23;;
55647;SDS011;45266;48.756;9.246;2022-08-19T00:07:59;13.13;;;11.75;;
55647;SDS011;45266;48.756;9.246;2022-08-19T00:09:02;11.40;;;10.30;;
55647;SDS011;45266;48.756;9.246;2022-08-19T00:10:06;11.60;;;10.50;;
55647;SDS011;45266;48.756;9.246;2022-08-19T00:11:09;12.18;;;11.07;;
55647;SDS011;45266;48.756;9.246;2022-08-19T00:12:26;12.10;;;10.90;;
55647;SDS011;45266;48.756;9.246;2022-08-19T00:13:28;13.07;;;11.80;;
55647;SDS011;45266;48.756;9.246;2022-08-19T00:14:30;12.57;;;11.45;;
55647;SDS011;45266;48.756;9.246;2022-08-19T00:15:35;12.13;;;11.02;;
55647;SDS011;45266;48.756;9.246;2022-08-19T00:16:39;12.43;;;11.23;;
55647;SDS011;45266;48.756;9.246;2022-08-19T00:17:42;12.98;;;11.75;;
55647;SDS011;45266;48.756;9.246;2022-08-19T00:18:46;14.48;;;13.10;;
55647;SDS011;45266;48.756;9.246;2022-08-19T00:19:48;13.82;;;12.43;;
55647;SDS011;45266;48.756;9.246;2022-08-19T00:20:50;13.35;;;11.95;;
55647;SDS011;45266;48.756;9.246;2022-08-19T00:21:52;14.15;;;11.75;;
55647;SDS011;45266;48.756;9.246;2022-08-19T00:22:54;12.98;;;11.77;;
55647;SDS011;45266;48.756;9.246;2022-08-19T00:23:56;13.77;;;12.38;;
55647;SDS011;45266;48.756;9.246;2022-08-19T00:24:59;12.93;;;11.63;;
55647;SDS011;45266;48.756;9.246;2022-08-19T00:26:05;13.75;;;12.32;;
55647;SDS011;45266;48.756;9.246;2022-08-19T00:27:08;12.35;;;11.15;;
55647;SDS011;45266;48.756;9.246;2022-08-19T00:28:26;13.05;;;11.82;;
55647;SDS011;45266;48.756;9.246;2022-08-19T00:29:28;13.50;;;12.30;;
55647;SDS011;45266;48.756;9.246;2022-08-19T00:30:30;13.18;;;11.85;;
55647;SDS011;45266;48.756;9.246;2022-08-19T00:31:32;13.25;;;11.88;;
55647;SDS011;45266;48.756;9.246;2022-08-19T00:32:34;13.55;;;12.20;;
55647;SDS011;45266;48.756;9.246;2022-08-19T00:33:36;15.30;;;12.75;;
55647;SDS011;45266;48.756;9.246;2022-08-19T00:34:38;12.85;;;10.80;;
55647;SDS011;45266;48.756;9.246;2022-08-19T00:35:40;13.27;;;11.98;;
55647;SDS011;45266;48.756;9.246;2022-08-19T00:36:42;13.77;;;12.30;;
55647;SDS011;45266;48.756;9.246;2022-08-19T00:37:43;13.45;;;12.15;;
55647;SDS011;45266;48.756;9.246;2022-08-19T00:38:45;14.65;;;13.15;;
55647;SDS011;45266;48.756;9.246;2022-08-19T00:39:47;13.63;;;12.23;;
55647;SDS011;45266;48.756;9.246;2022-08-19T00:40:49;14.07;;;12.32;;
55647;SDS011;45266;48.756;9.246;2022-08-19T00:41:51;14.00;;;12.60;;
55647;SDS011;45266;48.756;9.246;2022-08-19T00:42:53;13.20;;;11.90;;
55647;SDS011;45266;48.756;9.246;2022-08-19T00:45:10;14.60;;;13.10;;
55647;SDS011;45266;48.756;9.246;2022-08-19T00:46:16;14.27;;;12.77;;
55647;SDS011;45266;48.756;9.246;2022-08-19T00:47:19;15.35;;;12.93;;
55647;SDS011;45266;48.756;9.246;2022-08-19T00:48:21;13.15;;;11.82;;
55647;SDS011;45266;48.756;9.246;2022-08-19T00:49:31;13.68;;;12.30;;
55647;SDS011;45266;48.756;9.246;2022-08-19T00:50:39;13.93;;;12.52;;
55647;SDS011;45266;48.756;9.246;2022-08-19T00:51:57;14.40;;;12.85;;
55647;SDS011;45266;48.756;9.246;2022-08-19T00:53:06;17.75;;;12.75;;
55647;SDS011;45266;48.756;9.246;2022-08-19T00:54:10;13.63;;;12.23;;
55647;SDS011;45266;48.756;9.246;2022-08-19T00:55:15;14.25;;;12.80;;
55647;SDS011;45266;48.756;9.246;2022-08-19T00:56:19;13.88;;;12.48;;
55647;SDS011;45266;48.756;9.246;2022-08-19T00:57:23;14.13;;;12.43;;
55647;SDS011;45266;48.756;9.246;2022-08-19T00:58:34;13.93;;;12.63;;
55647;SDS011;45266;48.756;9.246;2022-08-19T00:59:37;13.70;;;12.35;;
55647;SDS011;45266;48.756;9.246;2022-08-19T01:01:01;13.73;;;12.10;;
55647;SDS011;45266;48.756;9.246;2022-08-19T01:02:05;13.30;;;11.90;;
55647;SDS011;45266;48.756;9.246;2022-08-19T01:03:08;13.45;;;12.13;;
55647;SDS011;45266;48.756;9.246;2022-08-19T01:04:13;12.95;;;11.50;;
55647;SDS011;45266;48.756;9.246;2022-08-19T01:05:17;13.77;;;12.35;;
55647;SDS011;45266;48.756;9.246;2022-08-19T01:06:25;13.35;;;12.05;;
55647;SDS011;45266;48.756;9.246;2022-08-19T01:07:27;13.38;;;12.07;;
55647;SDS011;45266;48.756;9.246;2022-08-19T01:08:38;14.82;;;12.55;;
55647;SDS011;45266;48.756;9.246;2022-08-19T01:09:39;14.10;;;12.70;;
55647;SDS011;45266;48.756;9.246;2022-08-19T01:10:43;15.88;;;13.02;;
55647;SDS011;45266;48.756;9.246;2022-08-19T01:11:48;13.30;;;12.00;;
55647;SDS011;45266;48.756;9.246;2022-08-19T01:12:51;13.85;;;12.32;;
55647;SDS011;45266;48.756;9.246;2022-08-19T01:13:54;13.45;;;12.15;;
55647;SDS011;45266;48.756;9.246;2022-08-19T01:14:56;13.90;;;12.50;;
55647;SDS011;45266;48.756;9.246;2022-08-19T01:16:05;13.90;;;12.10;;
55647;SDS011;45266;48.756;9.246;2022-08-19T01:17:11;14.13;;;12.65;;
55647;SDS011;45266;48.756;9.246;2022-08-19T01:18:14;13.95;;;12.45;;
55647;SDS011;45266;48.756;9.246;2022-08-19T01:19:20;15.23;;;12.65;;
55647;SDS011;45266;48.756;9.246;2022-08-19T01:20:24;14.57;;;13.07;;
55647;SDS011;45266;48.756;9.246;2022-08-19T01:21:40;15.02;;;13.07;;
55647;SDS011;45266;48.756;9.246;2022-08-19T01:22:55;14.38;;;12.85;;
55647;SDS011;45266;48.756;9.246;2022-08-19T01:23:58;14.05;;;12.45;;
55647;SDS011;45266;48.756;9.246;2022-08-19T01:25:00;13.75;;;12.38;;
55647;SDS011;45266;48.756;9.246;2022-08-19T01:26:06;13.93;;;12.50;;
55647;SDS011;45266;48.756;9.246;2022-08-19T01:27:08;14.57;;;12.70;;
55647;SDS011;45266;48.756;9.246;2022-08-19T01:28:29;14.18;;;12.15;;
55647;SDS011;45266;48.756;9.246;2022-08-19T01:29:41;14.35;;;12.85;;
55647;SDS011;45266;48.756;9.246;2022-08-19T01:30:44;14.80;;;12.10;;
55647;SDS011;45266;48.756;9.246;2022-08-19T01:31:51;14.00;;;12.60;;
55647;SDS011;45266;48.756;9.246;2022-08-19T01:32:54;13.80;;;12.35;;
55647;SDS011;45266;48.756;9.246;2022-08-19T01:33:57;13.98;;;12.68;;
55647;SDS011;45266;48.756;9.246;2022-08-19T01:35:00;13.68;;;12.10;;
55647;SDS011;45266;48.756;9.246;2022-08-19T01:36:07;14.85;;;11.85;;
55647;SDS011;45266;48.756;9.246;2022-08-19T01:37:15;14.23;;;12.80;;
55647;SDS011;45266;48.756;9.246;2022-08-19T01:38:27;13.73;;;12.32;;
55647;SDS011;45266;48.756;9.246;2022-08-19T01:39:31;15.73;;;14.05;;
55647;SDS011;45266;48.756;9.246;2022-08-19T01:40:35;14.30;;;12.75;;
55647;SDS011;45266;48.756;9.246;2022-08-19T01:41:39;15.60;;;12.98;;
55647;SDS011;45266;48.756;9.246;2022-08-19T01:42:41;14.85;;;13.27;;
55647;SDS011;45266;48.756;9.246;2022-08-19T01:43:43;15.02;;;13.05;;
55647;SDS011;45266;48.756;9.246;2022-08-19T01:45:05;14.55;;;12.93;;
55647;SDS011;45266;48.756;9.246;2022-08-19T01:46:08;12.77;;;11.57;;
55647;SDS011;45266;48.756;9.246;2022-08-19T01:47:10;13.65;;;12.07;;
55647;SDS011;45266;48.756;9.246;2022-08-19T01:48:12;15.68;;;13.32;;
55647;SDS011;45266;48.756;9.246;2022-08-19T01:49:15;15.27;;;13.77;;
55647;SDS011;45266;48.756;9.246;2022-08-19T01:50:19;15.20;;;13.60;;
55647;SDS011;45266;48.756;9.246;2022-08-19T01:51:22;13.85;;;12.35;;
55647;SDS011;45266;48.756;9.246;2022-08-19T01:52:24;14.27;;;12.77;;
55647;SDS011;45266;48.756;9.246;2022-08-19T01:53:25;13.98;;;11.90;;
55647;SDS011;45266;48.756;9.246;2022-08-19T01:54:34;13.98;;;12.65;;
55647;SDS011;45266;48.756;9.246;2022-08-19T01:55:37;13.27;;;11.63;;
55647;SDS011;45266;48.756;9.246;2022-08-19T01:56:41;14.73;;;12.55;;
55647;SDS011;45266;48.756;9.246;2022-08-19T01:57:45;14.77;;;13.27;;
55647;SDS011;45266;48.756;9.246;2022-08-19T01:58:54;15.48;;;13.52;;
55647;SDS011;45266;48.756;9.246;2022-08-19T02:00:00;13.98;;;12.45;;
55647;SDS011;45266;48.756;9.246;2022-08-19T02:01:06;14.65;;;13.15;;
55647;SDS011;45266;48.756;9.246;2022-08-19T02:02:08;14.73;;;13.20;;
55647;SDS011;45266;48.756;9.246;2022-08-19T02:03:10;14.05;;;12.65;;
55647;SDS011;45266;48.756;9.246;2022-08-19T02:04:12;15.80;;;12.90;;
55647;SDS011;45266;48.756;9.246;2022-08-19T02:05:14;13.90;;;12.50;;
55647;SDS011;45266;48.756;9.246;2022-08-19T02:06:19;16.50;;;13.68;;
55647;SDS011;45266;48.756;9.246;2022-08-19T02:07:27;16.55;;;13.45;;
55647;SDS011;45266;48.756;9.246;2022-08-19T02:08:29;13.82;;;12.35;;
55647;SDS011;45266;48.756;9.246;2022-08-19T02:09:32;14.93;;;12.90;;
55647;SDS011;45266;48.756;9.246;2022-08-19T02:10:37;14.13;;;12.63;;
55647;SDS011;45266;48.756;9.246;2022-08-19T02:11:42;14.57;;;13.00;;
55647;SDS011;45266;48.756;9.246;2022-08-19T02:12:44;14.43;;;12.93;;
55647;SDS011;45266;48.756;9.246;2022-08-19T02:13:47;14.07;;;12.68;;
55647;SDS011;45266;48.756;9.246;2022-08-19T02:14:50;14.55;;;13.05;;
55647;SDS011;45266;48.756;9.246;2022-08-19T02:15:52;14.70;;;13.20;;
55647;SDS011;45266;48.756;9.246;2022-08-19T02:16:54;14.82;;;13.30;;
55647;SDS011;45266;48.756;9.246;2022-08-19T02:17:55;16.52;;;13.45;;
55647;SDS011;45266;48.756;9.246;2022-08-19T02:18:57;15.32;;;13.80;;
55647;SDS011;45266;48.756;9.246;2022-08-19T02:20:02;16.08;;;14.45;;
55647;SDS011;45266;48.756;9.246;2022-08-19T02:21:05;15.07;;;12.75;;
55647;SDS011;45266;48.756;9.246;2022-08-19T02:22:07;14.60;;;13.10;;
55647;SDS011;45266;48.756;9.246;2022-08-19T02:23:09;14.50;;;12.88;;
55647;SDS011;45266;48.756;9.246;2022-08-19T02:24:16;14.52;;;13.02;;
55647;SDS011;45266;48.756;9.246;2022-08-19T02:25:18;15.07;;;13.57;;
55647;SDS011;45266;48.756;9.246;2022-08-19T02:26:19;15.23;;;13.63;;
55647;SDS011;45266;48.756;9.246;2022-08-19T02:27:22;16.08;;;14.38;;
55647;SDS011;45266;48.756;9.246;2022-08-19T02:28:24;15.57;;;13.80;;
55647;SDS011;45266;48.756;9.246;2022-08-19T02:29:25;15.15;;;13.65;;
55647;SDS011;45266;48.756;9.246;2022-08-19T02:30:27;15.13;;;13.60;;
55647;SDS011;45266;48.756;9.246;2022-08-19T02:31:29;14.63;;;13.23;;
55647;SDS011;45266;48.756;9.246;2022-08-19T02:32:31;15.02;;;13.45;;
55647;SDS011;45266;48.756;9.246;2022-08-19T02:33:34;15.75;;;14.15;;
55647;SDS011;45266;48.756;9.246;2022-08-19T02:34:36;16.92;;;15.13;;
55647;SDS011;45266;48.756;9.246;2022-08-19T02:35:40;16.80;;;14.15;;
55647;SDS011;45266;48.756;9.246;2022-08-19T02:36:44;15.60;;;13.52;;
55647;SDS011;45266;48.756;9.246;2022-08-19T02:37:52;15.90;;;13.75;;
55647;SDS011;45266;48.756;9.246;2022-08-19T02:39:12;17.08;;;15.02;;
55647;SDS011;45266;48.756;9.246;2022-08-19T02:40:14;15.75;;;14.15;;
55647;SDS011;45266;48.756;9.246;2022-08-19T02:41:20;15.77;;;13.75;;
55647;SDS011;45266;48.756;9.246;2022-08-19T02:42:27;17.08;;;14.60;;
55647;SDS011;45266;48.756;9.246;2022-08-19T02:43:29;16.05;;;14.35;;
55647;SDS011;45266;48.756;9.246;2022-08-19T02:44:34;17.88;;;15.13;;
55647;SDS011;45266;48.756;9.246;2022-08-19T02:45:38;16.83;;;14.75;;
55647;SDS011;45266;48.756;9.246;2022-08-19T02:46:44;16.67;;;14.90;;
55647;SDS011;45266;48.756;9.246;2022-08-19T02:47:47;16.42;;;14.73;;
55647;SDS011;45266;48.756;9.246;2022-08-19T02:48:50;16.63;;;14.82;;
55647;SDS011;45266;48.756;9.246;2022-08-19T02:49:53;18.27;;;15.43;;
55647;SDS011;45266;48.756;9.246;2022-08-19T02:50:55;17.13;;;15.05;;
55647;SDS011;45266;48.756;9.246;2022-08-19T02:51:57;16.80;;;15.07;;
55647;SDS011;45266;48.756;9.246;2022-08-19T02:52:58;17.70;;;15.85;;
55647;SDS011;45266;48.756;9.246;2022-08-19T02:54:00;19.05;;;15.48;;
55647;SDS011;45266;48.756;9.246;2022-08-19T02:55:03;16.98;;;15.27;;
55647;SDS011;45266;48.756;9.246;2022-08-19T02:56:06;17.52;;;15.52;;
55647;SDS011;45266;48.756;9.246;2022-08-19T02:57:09;17.38;;;15.57;;
55647;SDS011;45266;48.756;9.246;2022-08-19T02:58:11;17.83;;;15.93;;
55647;SDS011;45266;48.756;9.246;2022-08-19T02:59:14;17.70;;;15.80;;
55647;SDS011;45266;48.756;9.246;2022-08-19T03:00:16;17.88;;;15.95;;
55647;SDS011;45266;48.756;9.246;2022-08-19T03:01:22;19.65;;;15.88;;
55647;SDS011;45266;48.756;9.246;2022-08-19T03:02:26;18.73;;;16.63;;
55647;SDS011;45266;48.756;9.246;2022-08-19T03:03:28;19.02;;;16.70;;
55647;SDS011;45266;48.756;9.246;2022-08-19T03:04:30;17.33;;;15.60;;
55647;SDS011;45266;48.756;9.246;2022-08-19T03:05:32;19.52;;;16.30;;
55647;SDS011;45266;48.756;9.246;2022-08-19T03:06:55;18.85;;;16.92;;
55647;SDS011;45266;48.756;9.246;2022-08-19T03:08:07;18.88;;;16.35;;
55647;SDS011;45266;48.756;9.246;2022-08-19T03:09:13;18.08;;;15.88;;
55647;SDS011;45266;48.756;9.246;2022-08-19T03:10:16;18.45;;;16.50;;
55647;SDS011;45266;48.756;9.246;2022-08-19T03:12:22;17.90;;;16.00;;
55647;SDS011;45266;48.756;9.246;2022-08-19T03:13:23;19.55;;;17.48;;
55647;SDS011;45266;48.756;9.246;2022-08-19T03:14:25;18.15;;;16.25;;
55647;SDS011;45266;48.756;9.246;2022-08-19T03:15:27;21.08;;;18.27;;
55647;SDS011;45266;48.756;9.246;2022-08-19T03:16:30;19.90;;;16.45;;
55647;SDS011;45266;48.756;9.246;2022-08-19T03:17:34;19.83;;;16.98;;
55647;SDS011;45266;48.756;9.246;2022-08-19T03:18:36;18.60;;;16.70;;
55647;SDS011;45266;48.756;9.246;2022-08-19T03:19:38;18.73;;;16.52;;
55647;SDS011;45266;48.756;9.246;2022-08-19T03:20:47;19.40;;;16.98;;
55647;SDS011;45266;48.756;9.246;2022-08-19T03:21:50;20.38;;;17.15;;
55647;SDS011;45266;48.756;9.246;2022-08-19T03:22:52;20.33;;;16.38;;
55647;SDS011;45266;48.756;9.246;2022-08-19T03:23:55;18.65;;;16.75;;
55647;SDS011;45266;48.756;9.246;2022-08-19T03:24:58;19.00;;;16.92;;
55647;SDS011;45266;48.756;9.246;2022-08-19T03:26:02;18.10;;;16.30;;
55647;SDS011;45266;48.756;9.246;2022-08-19T03:27:17;19.92;;;17.48;;
55647;SDS011;45266;48.756;9.246;2022-08-19T03:28:19;19.05;;;16.95;;
55647;SDS011;45266;48.756;9.246;2022-08-19T03:29:22;18.23;;;16.30;;
55647;SDS011;45266;48.756;9.246;2022-08-19T03:30:31;19.48;;;17.33;;
55647;SDS011;45266;48.756;9.246;2022-08-19T03:31:33;19.73;;;17.63;;
55647;SDS011;45266;48.756;9.246;2022-08-19T03:32:45;20.42;;;17.42;;
55647;SDS011;45266;48.756;9.246;2022-08-19T03:33:57;20.98;;;17.27;;
55647;SDS011;45266;48.756;9.246;2022-08-19T03:34:58;19.60;;;17.50;;
55647;SDS011;45266;48.756;9.246;2022-08-19T03:37:08;18.70;;;16.77;;
55647;SDS011;45266;48.756;9.246;2022-08-19T03:38:13;19.27;;;16.77;;
55647;SDS011;45266;48.756;9.246;2022-08-19T03:39:15;20.88;;;17.98;;
55647;SDS011;45266;48.756;9.246;2022-08-19T03:40:17;20.27;;;18.02;;
55647;SDS011;45266;48.756;9.246;2022-08-19T03:41:21;20.90;;;18.48;;
55647;SDS011;45266;48.756;9.246;2022-08-19T03:42:43;19.80;;;17.80;;
55647;SDS011;45266;48.756;9.246;2022-08-19T03:43:49;20.63;;;18.38;;
55647;SDS011;45266;48.756;9.246;2022-08-19T03:44:52;21.42;;;18.23;;
55647;SDS011;45266;48.756;9.246;2022-08-19T03:46:04;20.13;;;17.95;;
55647;SDS011;45266;48.756;9.246;2022-08-19T03:47:11;21.73;;;19.08;;
55647;SDS011;45266;48.756;9.246;2022-08-19T03:48:17;20.05;;;17.83;;
55647;SDS011;45266;48.756;9.246;2022-08-19T03:49:19;23.20;;;18.98;;
55647;SDS011;45266;48.756;9.246;2022-08-19T03:50:28;22.52;;;18.02;;
55647;SDS011;45266;48.756;9.246;2022-08-19T03:51:31;19.73;;;17.67;;
55647;SDS011;45266;48.756;9.246;2022-08-19T03:52:36;21.67;;;19.38;;
55647;SDS011;45266;48.756;9.246;2022-08-19T03:53:38;20.55;;;18.45;;
55647;SDS011;45266;48.756;9.246;2022-08-19T03:54:40;20.35;;;18.10;;
55647;SDS011;45266;48.756;9.246;2022-08-19T03:55:42;20.83;;;18.27;;
55647;SDS011;45266;48.756;9.246;2022-08-19T03:56:46;20.65;;;18.30;;
55647;SDS011;45266;48.756;9.246;2022-08-19T03:57:49;20.40;;;18.00;;
55647;SDS011;45266;48.756;9.246;2022-08-19T03:58:51;19.27;;;17.17;;
55647;SDS011;45266;48.756;9.246;2022-08-19T03:59:53;18.10;;;16.20;;
55647;SDS011;45266;48.756;9.246;2022-08-19T04:01:07;18.13;;;16.23;;
55647;SDS011;45266;48.756;9.246;2022-08-19T04:02:13;18.63;;;16.63;;
55647;SDS011;45266;48.756;9.246;2022-08-19T04:03:15;21.90;;;19.23;;
55647;SDS011;45266;48.756;9.246;2022-08-19T04:04:19;20.33;;;18.15;;
55647;SDS011;45266;48.756;9.246;2022-08-19T04:05:22;20.15;;;17.77;;
55647;SDS011;45266;48.756;9.246;2022-08-19T04:06:29;20.50;;;16.75;;
55647;SDS011;45266;48.756;9.246;2022-08-19T04:07:33;20.85;;;18.17;;
55647;SDS011;45266;48.756;9.246;2022-08-19T04:08:35;22.70;;;18.20;;
55647;SDS011;45266;48.756;9.246;2022-08-19T04:09:37;20.35;;;18.15;;
55647;SDS011;45266;48.756;9.246;2022-08-19T04:10:38;21.35;;;18.70;;
55647;SDS011;45266;48.756;9.246;2022-08-19T04:11:51;20.88;;;18.58;;
55647;SDS011;45266;48.756;9.246;2022-08-19T04:12:55;22.23;;;19.00;;
55647;SDS011;45266;48.756;9.246;2022-08-19T04:13:56;21.92;;;19.58;;
55647;SDS011;45266;48.756;9.246;2022-08-19T04:14:58;21.50;;;19.20;;
55647;SDS011;45266;48.756;9.246;2022-08-19T04:16:00;22.35;;;19.15;;
55647;SDS011;45266;48.756;9.246;2022-08-19T04:17:02;21.52;;;18.05;;
55647;SDS011;45266;48.756;9.246;2022-08-19T04:18:06;20.95;;;18.13;;
55647;SDS011;45266;48.756;9.246;2022-08-19T04:19:08;22.23;;;18.80;;
55647;SDS011;45266;48.756;9.246;2022-08-19T04:20:11;20.60;;;18.40;;
55647;SDS011;45266;48.756;9.246;2022-08-19T04:21:19;21.00;;;18.75;;
55647;SDS011;45266;48.756;9.246;2022-08-19T04:22:22;21.67;;;19.38;;
55647;SDS011;45266;48.756;9.246;2022-08-19T04:23:27;22.35;;;18.77;;
55647;SDS011;45266;48.756;9.246;2022-08-19T04:24:33;21.40;;;18.58;;
55647;SDS011;45266;48.756;9.246;2022-08-19T04:25:36;21.80;;;19.52;;
55647;SDS011;45266;48.756;9.246;2022-08-19T04:26:43;21.45;;;19.25;;
55647;SDS011;45266;48.756;9.246;2022-08-19T04:27:45;20.98;;;18.33;;
55647;SDS011;45266;48.756;9.246;2022-08-19T04:28:47;23.30;;;20.85;;
55647;SDS011;45266;48.756;9.246;2022-08-19T04:29:49;24.42;;;19.77;;
55647;SDS011;45266;48.756;9.246;2022-08-19T04:30:53;22.63;;;19.52;;
55647;SDS011;45266;48.756;9.246;2022-08-19T04:31:56;20.70;;;18.08;;
55647;SDS011;45266;48.756;9.246;2022-08-19T04:32:59;23.13;;;19.67;;
55647;SDS011;45266;48.756;9.246;2022-08-19T04:34:02;20.80;;;18.60;;
55647;SDS011;45266;48.756;9.246;2022-08-19T04:35:06;21.95;;;19.17;;
55647;SDS011;45266;48.756;9.246;2022-08-19T04:36:21;21.77;;;19.40;;
55647;SDS011;45266;48.756;9.246;2022-08-19T04:37:28;23.67;;;19.05;;
55647;SDS011;45266;48.756;9.246;2022-08-19T04:38:35;22.33;;;19.60;;
55647;SDS011;45266;48.756;9.246;2022-08-19T04:39:38;23.77;;;20.48;;
55647;SDS011;45266;48.756;9.246;2022-08-19T04:41:15;21.42;;;19.13;;
55647;SDS011;45266;48.756;9.246;2022-08-19T04:42:36;24.25;;;19.98;;
55647;SDS011;45266;48.756;9.246;2022-08-19T04:43:40;22.80;;;20.08;;
55647;SDS011;45266;48.756;9.246;2022-08-19T04:44:42;23.00;;;20.48;;
55647;SDS011;45266;48.756;9.246;2022-08-19T04:45:46;21.95;;;19.63;;
55647;SDS011;45266;48.756;9.246;2022-08-19T04:46:49;21.60;;;19.27;;
55647;SDS011;45266;48.756;9.246;2022-08-19T04:47:54;21.73;;;19.33;;
55647;SDS011;45266;48.756;9.246;2022-08-19T04:49:21;21.92;;;19.33;;
55647;SDS011;45266;48.756;9.246;2022-08-19T04:50:25;21.40;;;18.25;;
55647;SDS011;45266;48.756;9.246;2022-08-19T04:51:28;21.63;;;19.30;;
55647;SDS011;45266;48.756;9.246;2022-08-19T04:52:32;23.33;;;19.40;;
55647;SDS011;45266;48.756;9.246;2022-08-19T04:53:35;20.88;;;18.63;;
55647;SDS011;45266;48.756;9.246;2022-08-19T04:54:38;21.73;;;19.35;;
55647;SDS011;45266;48.756;9.246;2022-08-19T04:55:41;22.20;;;19.75;;
55647;SDS011;45266;48.756;9.246;2022-08-19T04:56:43;22.35;;;20.02;;
55647;SDS011;45266;48.756;9.246;2022-08-19T04:57:45;22.80;;;19.92;;
55647;SDS011;45266;48.756;9.246;2022-08-19T04:58:48;24.55;;;21.92;;
55647;SDS011;45266;48.756;9.246;2022-08-19T04:59:56;24.92;;;21.13;;
55647;SDS011;45266;48.756;9.246;2022-08-19T05:00:58;22.80;;;20.00;;
55647;SDS011;45266;48.756;9.246;2022-08-19T05:02:01;23.80;;;20.00;;
55647;SDS011;45266;48.756;9.246;2022-08-19T05:03:03;23.70;;;19.63;;
55647;SDS011;45266;48.756;9.246;2022-08-19T05:04:08;23.15;;;18.98;;
55647;SDS011;45266;48.756;9.246;2022-08-19T05:05:10;21.52;;;19.00;;
55647;SDS011;45266;48.756;9.246;2022-08-19T05:06:13;23.67;;;21.00;;
55647;SDS011;45266;48.756;9.246;2022-08-19T05:07:16;22.35;;;19.75;;
55647;SDS011;45266;48.756;9.246;2022-08-19T05:08:19;23.95;;;20.70;;
55647;SDS011;45266;48.756;9.246;2022-08-19T05:09:31;22.58;;;19.52;;
55647;SDS011;45266;48.756;9.246;2022-08-19T05:10:53;24.17;;;21.38;;
55647;SDS011;45266;48.756;9.246;2022-08-19T05:11:55;23.65;;;20.20;;
55647;SDS011;45266;48.756;9.246;2022-08-19T05:12:57;24.80;;;21.42;;
55647;SDS011;45266;48.756;9.246;2022-08-19T05:14:00;21.77;;;19.65;;
55647;SDS011;45266;48.756;9.246;2022-08-19T05:15:04;23.60;;;20.10;;
55647;SDS011;45266;48.756;9.246;2022-08-19T05:16:10;24.13;;;21.52;;
55647;SDS011;45266;48.756;9.246;2022-08-19T05:17:13;24.10;;;21.30;;
55647;SDS011;45266;48.756;9.246;2022-08-19T05:18:35;23.05;;;20.13;;
55647;SDS011;45266;48.756;9.246;2022-08-19T05:19:56;22.58;;;20.10;;
55647;SDS011;45266;48.756;9.246;2022-08-19T05:21:17;23.10;;;20.60;;
55647;SDS011;45266;48.756;9.246;2022-08-19T05:22:39;22.55;;;20.05;;
55647;SDS011;45266;48.756;9.246;2022-08-19T05:23:42;22.08;;;19.40;;
55647;SDS011;45266;48.756;9.246;2022-08-19T05:24:45;22.52;;;20.15;;
55647;SDS011;45266;48.756;9.246;2022-08-19T05:26:07;22.45;;;19.75;;
55647;SDS011;45266;48.756;9.246;2022-08-19T05:27:10;22.48;;;20.08;;
55647;SDS011;45266;48.756;9.246;2022-08-19T05:28:12;24.50;;;20.83;;
55647;SDS011;45266;48.756;9.246;2022-08-19T05:29:14;22.35;;;19.42;;
55647;SDS011;45266;48.756;9.246;2022-08-19T05:30:18;22.65;;;20.05;;
55647;SDS011;45266;48.756;9.246;2022-08-19T05:31:40;24.75;;;20.40;;
55647;SDS011;45266;48.756;9.246;2022-08-19T05:32:42;22.10;;;19.75;;
55647;SDS011;45266;48.756;9.246;2022-08-19T05:33:44;23.25;;;19.77;;
55647;SDS011;45266;48.756;9.246;2022-08-19T05:34:46;22.92;;;19.73;;
55647;SDS011;45266;48.756;9.246;2022-08-19T05:35:48;22.63;;;20.30;;
55647;SDS011;45266;48.756;9.246;2022-08-19T05:36:51;22.73;;;20.00;;
55647;SDS011;45266;48.756;9.246;2022-08-19T05:37:58;22.40;;;20.05;;
55647;SDS011;45266;48.756;9.246;2022-08-19T05:38:59;24.15;;;19.77;;
55647;SDS011;45266;48.756;9.246;2022-08-19T05:40:02;23.73;;;20.80;;
55647;SDS011;45266;48.756;9.246;2022-08-19T05:41:11;23.98;;;20.58;;
55647;SDS011;45266;48.756;9.246;2022-08-19T05:42:16;24.52;;;19.63;;
55647;SDS011;45266;48.756;9.246;2022-08-19T05:43:17;21.73;;;19.42;;
55647;SDS011;45266;48.756;9.246;2022-08-19T05:44:19;21.27;;;18.85;;
55647;SDS011;45266;48.756;9.246;2022-08-19T05:45:23;22.25;;;19.95;;
55647;SDS011;45266;48.756;9.246;2022-08-19T05:46:25;22.80;;;20.33;;
55647;SDS011;45266;48.756;9.246;2022-08-19T05:47:28;22.42;;;19.67;;
55647;SDS011;45266;48.756;9.246;2022-08-19T05:48:30;21.55;;;19.30;;
55647;SDS011;45266;48.756;9.246;2022-08-19T05:49:32;22.27;;;19.98;;
55647;SDS011;45266;48.756;9.246;2022-08-19T05:50:35;21.95;;;19.42;;
55647;SDS011;45266;48.756;9.246;2022-08-19T05:51:37;21.90;;;19.60;;
55647;SDS011;45266;48.756;9.246;2022-08-19T05:52:39;22.25;;;19.42;;
55647;SDS011;45266;48.756;9.246;2022-08-19T05:53:51;23.15;;;19.10;;
55647;SDS011;45266;48.756;9.246;2022-08-19T05:54:53;21.60;;;19.33;;
55647;SDS011;45266;48.756;9.246;2022-08-19T05:55:57;22.75;;;19.90;;
55647;SDS011;45266;48.756;9.246;2022-08-19T05:56:59;22.77;;;20.48;;
55647;SDS011;45266;48.756;9.246;2022-08-19T05:58:03;21.98;;;19.58;;
55647;SDS011;45266;48.756;9.246;2022-08-19T05:59:05;21.05;;;18.88;;
55647;SDS011;45266;48.756;9.246;2022-08-19T06:00:10;23.50;;;19.95;;
55647;SDS011;45266;48.756;9.246;2022-08-19T06:01:15;21.45;;;19.23;;
55647;SDS011;45266;48.756;9.246;2022-08-19T06:02:17;22.02;;;19.73;;
55647;SDS011;45266;48.756;9.246;2022-08-19T06:03:19;21.70;;;19.40;;
55647;SDS011;45266;48.756;9.246;2022-08-19T06:04:21;21.40;;;19.20;;
55647;SDS011;45266;48.756;9.246;2022-08-19T06:05:23;21.52;;;19.27;;
55647;SDS011;45266;48.756;9.246;2022-08-19T06:06:25;21.67;;;19.48;;
55647;SDS011;45266;48.756;9.246;2022-08-19T06:07:27;25.17;;;20.52;;
55647;SDS011;45266;48.756;9.246;2022-08-19T06:08:30;21.38;;;19.13;;
55647;SDS011;45266;48.756;9.246;2022-08-19T06:09:35;21.75;;;19.52;;
55647;SDS011;45266;48.756;9.246;2022-08-19T06:10:37;22.30;;;19.92;;
55647;SDS011;45266;48.756;9.246;2022-08-19T06:11:43;21.25;;;18.95;;
55647;SDS011;45266;48.756;9.246;2022-08-19T06:12:56;23.35;;;20.88;;
55647;SDS011;45266;48.756;9.246;2022-08-19T06:13:59;22.35;;;19.95;;
55647;SDS011;45266;48.756;9.246;2022-08-19T06:15:05;23.77;;;21.15;;
55647;SDS011;45266;48.756;9.246;2022-08-19T06:16:09;23.08;;;20.48;;
55647;SDS011;45266;48.756;9.246;2022-08-19T06:17:11;24.58;;;22.05;;
55647;SDS011;45266;48.756;9.246;2022-08-19T06:18:14;26.55;;;22.50;;
55647;SDS011;45266;48.756;9.246;2022-08-19T06:19:17;25.33;;;21.58;;
55647;SDS011;45266;48.756;9.246;2022-08-19T06:20:20;24.52;;;22.02;;
55647;SDS011;45266;48.756;9.246;2022-08-19T06:21:43;27.23;;;23.08;;
55647;SDS011;45266;48.756;9.246;2022-08-19T06:22:47;26.55;;;22.35;;